Time;durP1;ratioP1;P1;durP2;ratioP2;P2;SDS_P1;SDS_P2;PMS_P1;PMS_P2;Temp;Humidity;BMP_temperature;BMP_pressure;BME280_temperature;BME280_humidity;BME280_pressure;Samples;Min_cycle;Max_cycle;Signal;HPM_P1;HPM_P2
2021/12/04 06:00:39;;;;;;;0.80;0.60;;;6.00;97.20;;;;;;1727092;28;20215;-77
2021/12/04 06:01:31;;;;;;;1.27;0.60;;;6.00;97.20;;;;;;1727345;28;20192;-76
2021/12/04 06:02:22;;;;;;;0.75;0.57;;;6.00;97.20;;;;;;1727379;28;20200;-78
2021/12/04 06:03:13;;;;;;;0.80;0.60;;;6.00;97.20;;;;;;1727355;28;20228;-77
2021/12/04 06:04:05;;;;;;;0.90;0.63;;;6.00;97.20;;;;;;1727205;28;20204;-74
2021/12/04 06:04:56;;;;;;;0.90;0.60;;;6.00;97.20;;;;;;1727552;28;20450;-76
2021/12/04 06:05:48;;;;;;;1.07;0.60;;;6.00;97.20;;;;;;1727380;28;20202;-77
2021/12/04 06:06:38;;;;;;;1.00;0.75;;;6.00;97.20;;;;;;1727495;28;20292;-76
2021/12/04 06:07:30;;;;;;;0.90;0.60;;;6.00;97.20;;;;;;1727478;28;20203;-78
2021/12/04 06:08:21;;;;;;;0.70;0.50;;;6.00;97.20;;;;;;1727307;28;20204;-76
2021/12/04 06:09:13;;;;;;;0.98;0.63;;;6.00;97.20;;;;;;1727178;28;20209;-77
2021/12/04 06:10:05;;;;;;;0.93;0.60;;;6.00;97.20;;;;;;1727524;28;20201;-75
2021/12/04 06:10:57;;;;;;;0.93;0.77;;;6.00;97.20;;;;;;1727311;28;20251;-76
2021/12/04 06:11:49;;;;;;;0.80;0.60;;;6.00;97.20;;;;;;1727260;28;20209;-75
2021/12/04 06:12:40;;;;;;;1.10;0.80;;;6.00;97.20;;;;;;1727453;28;20224;-77
2021/12/04 06:13:31;;;;;;;0.80;0.55;;;6.00;97.20;;;;;;1727097;28;20653;-77
2021/12/04 06:14:23;;;;;;;2.03;1.10;;;6.00;97.20;;;;;;1728400;28;20543;-75
2021/12/04 06:15:14;;;;;;;2.30;1.73;;;6.00;97.20;;;;;;1728619;28;20205;-76
2021/12/04 06:16:07;;;;;;;2.97;2.20;;;6.00;97.20;;;;;;1728511;28;20200;-76
2021/12/04 06:16:58;;;;;;;4.70;3.05;;;6.00;97.20;;;;;;1728534;28;20240;-77
2021/12/04 06:17:52;;;;;;;2.53;1.83;;;6.10;97.20;;;;;;1728589;28;20208;-77
2021/12/04 06:18:46;;;;;;;2.42;1.80;;;6.10;97.20;;;;;;1728466;28;20224;-76
2021/12/04 06:23:05;;;;;;;1.00;0.90;;;6.10;97.20;;;;;;1728684;28;20250;-77
2021/12/04 06:23:56;;;;;;;1.20;0.70;;;6.10;97.20;;;;;;1728278;28;20664;-77
2021/12/04 06:24:47;;;;;;;1.00;0.80;;;6.10;97.20;;;;;;1728454;28;20711;-76
2021/12/04 06:25:39;;;;;;;0.75;0.60;;;6.00;97.20;;;;;;1728673;28;20201;-77
2021/12/04 06:26:30;;;;;;;0.80;0.70;;;6.00;97.20;;;;;;1728489;28;20203;-77
2021/12/04 06:27:21;;;;;;;1.00;0.70;;;6.00;97.20;;;;;;1728618;28;20793;-77
2021/12/04 06:28:14;;;;;;;0.70;0.50;;;6.00;97.20;;;;;;1728453;28;20827;-77
2021/12/04 06:29:05;;;;;;;0.70;0.50;;;6.00;97.20;;;;;;1728274;28;20532;-76
2021/12/04 06:29:56;;;;;;;1.02;0.68;;;6.00;97.20;;;;;;1728350;28;20197;-76
2021/12/04 06:30:47;;;;;;;1.23;1.13;;;6.10;97.20;;;;;;1728432;28;20615;-76
2021/12/04 06:31:40;;;;;;;2.50;1.70;;;6.10;97.20;;;;;;1728541;28;20294;-76
2021/12/04 06:32:31;;;;;;;1.70;1.60;;;6.10;97.20;;;;;;1728357;28;20471;-76
2021/12/04 06:33:23;;;;;;;2.97;2.47;;;6.10;97.20;;;;;;1728448;28;20583;-77
2021/12/04 06:34:14;;;;;;;2.50;2.30;;;6.10;97.20;;;;;;1728335;28;20228;-77
2021/12/04 06:35:08;;;;;;;2.30;2.10;;;6.10;97.20;;;;;;1728431;28;20208;-75
2021/12/04 06:36:00;;;;;;;2.55;1.08;;;6.10;97.20;;;;;;1728378;28;20215;-75
2021/12/04 06:36:51;;;;;;;3.72;1.50;;;6.10;97.20;;;;;;1720219;28;20650;-77
2021/12/04 06:37:42;;;;;;;1.55;1.23;;;6.10;97.20;;;;;;1714922;28;20205;-76
2021/12/04 06:38:35;;;;;;;1.10;1.00;;;6.10;97.20;;;;;;1714807;28;20229;-76
2021/12/04 06:39:26;;;;;;;0.90;0.80;;;6.20;97.20;;;;;;1714923;28;20205;-76
2021/12/04 06:40:20;;;;;;;1.00;0.90;;;6.20;97.20;;;;;;1714788;28;20201;-76
2021/12/04 06:41:11;;;;;;;1.20;1.10;;;6.20;97.20;;;;;;1714872;28;20244;-76
2021/12/04 06:42:03;;;;;;;1.23;0.80;;;6.20;97.20;;;;;;1714898;28;20205;-76
2021/12/04 06:42:55;;;;;;;0.80;0.73;;;6.20;97.20;;;;;;1714659;28;20206;-76
2021/12/04 06:43:49;;;;;;;1.00;0.90;;;6.20;97.20;;;;;;1714462;28;20194;-75
2021/12/04 06:44:40;;;;;;;0.90;0.80;;;6.20;97.20;;;;;;1714786;28;20225;-76
2021/12/04 06:45:33;;;;;;;0.70;0.70;;;6.20;97.20;;;;;;1714502;28;20197;-76
2021/12/04 06:46:25;;;;;;;0.80;0.60;;;6.30;97.20;;;;;;1711299;28;20461;-76
2021/12/04 06:47:18;;;;;;;0.70;0.60;;;6.30;97.20;;;;;;1714678;28;20201;-75
2021/12/04 06:48:11;;;;;;;0.90;0.60;;;6.30;97.20;;;;;;1721177;28;20228;-76
2021/12/04 06:49:08;;;;;;;1.40;0.77;;;6.30;97.20;;;;;;1721435;28;20295;-76
2021/12/04 06:50:04;;;;;;;1.50;0.75;;;6.30;97.20;;;;;;1714385;28;20685;-76
2021/12/04 06:50:59;;;;;;;0.77;0.60;;;6.30;97.20;;;;;;1714675;28;20308;-76
2021/12/04 06:51:52;;;;;;;0.70;0.60;;;6.30;97.20;;;;;;1720323;28;20676;-75
2021/12/04 06:52:47;;;;;;;0.80;0.70;;;6.30;97.20;;;;;;1721494;28;20204;-75
2021/12/04 06:53:42;;;;;;;0.82;0.57;;;6.30;97.20;;;;;;1721387;28;20236;-76
2021/12/04 06:54:36;;;;;;;0.70;0.60;;;6.40;97.20;;;;;;1721385;28;20293;-76
2021/12/04 06:55:29;;;;;;;0.70;0.60;;;6.40;97.20;;;;;;1719150;28;20296;-75
2021/12/04 06:56:23;;;;;;;0.70;0.63;;;6.40;97.20;;;;;;1714942;28;20232;-78
2021/12/04 06:57:13;;;;;;;0.93;0.68;;;6.40;97.20;;;;;;1714849;28;20210;-76
2021/12/04 06:58:05;;;;;;;0.80;0.70;;;6.40;97.20;;;;;;1714771;28;20292;-77
2021/12/04 06:58:56;;;;;;;1.35;0.50;;;6.40;97.20;;;;;;1714789;28;20205;-77
2021/12/04 06:59:49;;;;;;;0.63;0.50;;;6.40;97.20;;;;;;1714832;28;20198;-77
2021/12/04 07:00:40;;;;;;;0.70;0.60;;;6.30;97.20;;;;;;1714791;28;20240;-77
2021/12/04 07:01:31;;;;;;;2.05;0.60;;;6.40;97.20;;;;;;1714700;28;20229;-76
2021/12/04 07:02:23;;;;;;;0.70;0.50;;;6.40;97.20;;;;;;1714761;28;20245;-76
2021/12/04 07:03:15;;;;;;;2.05;0.60;;;6.40;97.20;;;;;;1714856;28;20248;-77
2021/12/04 07:04:07;;;;;;;0.85;0.60;;;6.40;97.20;;;;;;1714414;28;20209;-75
2021/12/04 07:04:58;;;;;;;0.70;0.60;;;6.40;97.20;;;;;;1715129;28;20236;-76
2021/12/04 07:05:49;;;;;;;0.90;0.60;;;6.40;97.20;;;;;;1714628;28;20220;-77
2021/12/04 07:06:41;;;;;;;1.00;0.70;;;6.40;97.20;;;;;;1714808;28;20205;-76
2021/12/04 07:07:31;;;;;;;0.90;0.70;;;6.40;97.20;;;;;;1714598;28;20452;-76
2021/12/04 07:08:23;;;;;;;1.87;0.63;;;6.40;97.20;;;;;;1714724;28;20212;-76
2021/12/04 07:09:14;;;;;;;0.70;0.57;;;6.40;97.20;;;;;;1714666;28;20221;-76
2021/12/04 07:10:06;;;;;;;0.83;0.60;;;6.50;97.20;;;;;;1714560;28;20202;-77
2021/12/04 07:10:58;;;;;;;0.80;0.63;;;6.50;97.20;;;;;;1714718;28;20465;-77
2021/12/04 07:11:49;;;;;;;2.15;0.70;;;6.50;97.20;;;;;;1714700;28;20201;-76
2021/12/04 07:12:40;;;;;;;0.80;0.68;;;6.50;97.20;;;;;;1714681;28;20600;-76
2021/12/04 07:13:32;;;;;;;1.20;0.70;;;6.50;97.20;;;;;;1714347;28;20198;-76
2021/12/04 07:14:24;;;;;;;0.90;0.70;;;6.50;97.20;;;;;;1714682;28;20574;-77
2021/12/04 07:15:15;;;;;;;1.07;0.90;;;6.50;97.20;;;;;;1714699;28;20256;-76
2021/12/04 07:16:08;;;;;;;1.02;0.70;;;6.50;97.20;;;;;;1714749;28;20233;-76
2021/12/04 07:17:02;;;;;;;0.70;0.60;;;6.50;97.20;;;;;;1714742;28;20245;-76
2021/12/04 07:17:55;;;;;;;0.80;0.70;;;6.50;97.20;;;;;;1714722;28;20332;-77
2021/12/04 07:18:46;;;;;;;0.82;0.60;;;6.50;97.20;;;;;;1714556;28;20209;-76
2021/12/04 07:19:37;;;;;;;0.95;0.60;;;6.50;97.20;;;;;;1714591;28;20201;-75
2021/12/04 07:20:30;;;;;;;0.80;0.67;;;6.50;97.20;;;;;;1714633;28;20285;-75
2021/12/04 07:21:22;;;;;;;1.00;0.70;;;6.50;97.20;;;;;;1720530;28;20652;-76
2021/12/04 07:22:13;;;;;;;0.70;0.50;;;6.50;97.20;;;;;;1721370;28;20201;-75
2021/12/04 07:23:04;;;;;;;1.40;0.68;;;6.50;97.20;;;;;;1719580;28;20630;-76
2021/12/04 07:23:56;;;;;;;0.80;0.70;;;6.50;97.20;;;;;;1720987;28;20201;-76
2021/12/04 07:24:47;;;;;;;1.23;0.70;;;6.50;97.20;;;;;;1721212;28;20491;-76
2021/12/04 07:25:38;;;;;;;0.80;0.70;;;6.50;97.20;;;;;;1721355;28;20197;-76
2021/12/04 07:26:29;;;;;;;0.80;0.80;;;6.60;97.20;;;;;;1721226;28;20197;-76
2021/12/04 07:27:21;;;;;;;1.07;0.77;;;6.60;97.20;;;;;;1721299;28;20201;-76
2021/12/04 07:28:11;;;;;;;0.88;0.65;;;6.60;97.20;;;;;;1721277;28;20686;-76
2021/12/04 07:29:04;;;;;;;1.13;0.70;;;6.60;97.20;;;;;;1719070;28;20221;-75
2021/12/04 07:29:55;;;;;;;0.90;0.70;;;6.60;97.20;;;;;;1714607;28;20442;-75
2021/12/04 07:30:46;;;;;;;0.80;0.80;;;6.60;97.20;;;;;;1714385;28;20221;-76
2021/12/04 07:31:37;;;;;;;0.80;0.70;;;6.60;97.20;;;;;;1714493;28;20202;-75
2021/12/04 07:32:29;;;;;;;0.70;0.60;;;6.60;97.20;;;;;;1714449;28;20280;-78
2021/12/04 07:33:21;;;;;;;0.98;0.70;;;6.60;97.20;;;;;;1718099;28;20582;-76
2021/12/04 07:34:13;;;;;;;0.88;0.75;;;6.70;97.20;;;;;;1720545;28;20281;-76
2021/12/04 07:35:06;;;;;;;0.80;0.70;;;6.70;97.20;;;;;;1720575;28;20201;-76
2021/12/04 07:35:59;;;;;;;1.23;0.90;;;6.70;97.20;;;;;;1721151;28;20284;-76
2021/12/04 07:36:49;;;;;;;0.90;0.70;;;6.70;97.20;;;;;;1721217;28;20212;-76
2021/12/04 07:37:41;;;;;;;0.97;0.77;;;6.70;97.20;;;;;;1721165;28;20235;-76
2021/12/04 07:38:32;;;;;;;0.80;0.70;;;6.70;97.20;;;;;;1721209;28;20243;-76
2021/12/04 07:39:24;;;;;;;1.20;0.60;;;6.70;97.20;;;;;;1721026;28;20208;-75
2021/12/04 07:40:15;;;;;;;0.90;0.70;;;6.70;97.20;;;;;;1721015;28;20459;-75
2021/12/04 07:41:08;;;;;;;0.90;0.80;;;6.70;97.20;;;;;;1721188;28;20207;-75
2021/12/04 07:41:58;;;;;;;0.75;0.70;;;6.70;97.20;;;;;;1721193;28;21258;-76
2021/12/04 07:42:50;;;;;;;0.90;0.80;;;6.70;97.20;;;;;;1721163;28;20567;-76
2021/12/04 07:43:42;;;;;;;0.80;0.70;;;6.70;97.20;;;;;;1719720;28;20248;-76
2021/12/04 07:44:33;;;;;;;1.27;0.80;;;6.70;97.20;;;;;;1721088;28;20197;-76
2021/12/04 07:45:24;;;;;;;1.10;0.88;;;6.70;97.20;;;;;;1720980;28;20638;-76
2021/12/04 07:46:16;;;;;;;0.80;0.80;;;6.70;97.20;;;;;;1721167;28;20259;-75
2021/12/04 07:47:07;;;;;;;0.80;0.75;;;6.70;97.20;;;;;;1721128;28;20460;-75
2021/12/04 07:47:59;;;;;;;1.00;0.80;;;6.70;97.20;;;;;;1721098;28;20193;-76
2021/12/04 07:48:51;;;;;;;0.90;0.80;;;6.70;97.20;;;;;;1720887;28;20232;-76
2021/12/04 07:49:43;;;;;;;0.90;0.80;;;6.70;97.20;;;;;;1721179;28;20335;-75
2021/12/04 07:50:35;;;;;;;0.82;0.65;;;6.70;97.20;;;;;;1720283;28;20221;-76
2021/12/04 07:51:26;;;;;;;1.10;0.70;;;6.70;97.20;;;;;;1719782;28;20197;-75
2021/12/04 07:52:17;;;;;;;0.80;0.65;;;6.70;97.20;;;;;;1716475;28;20213;-75
2021/12/04 07:53:09;;;;;;;1.50;0.80;;;6.70;97.20;;;;;;1714428;28;20209;-76
2021/12/04 07:54:00;;;;;;;0.90;0.70;;;6.70;97.20;;;;;;1714114;28;20236;-76
2021/12/04 07:54:52;;;;;;;0.80;0.70;;;6.70;97.20;;;;;;1714372;28;20676;-76
2021/12/04 07:55:42;;;;;;;1.27;0.70;;;6.70;97.20;;;;;;1714280;28;20210;-76
2021/12/04 07:56:34;;;;;;;2.50;0.90;;;6.70;97.20;;;;;;1714430;28;20284;-75
2021/12/04 07:57:26;;;;;;;0.80;0.80;;;6.70;97.20;;;;;;1714753;28;20214;-76
2021/12/04 07:58:18;;;;;;;0.70;0.60;;;6.70;97.20;;;;;;1714464;28;20284;-76
2021/12/04 07:59:08;;;;;;;3.30;0.70;;;6.70;97.20;;;;;;1715527;28;20210;-76
2021/12/04 08:00:00;;;;;;;0.87;0.70;;;6.60;97.20;;;;;;1720163;28;20299;-74
2021/12/04 08:00:51;;;;;;;1.17;0.60;;;6.60;97.20;;;;;;1718768;28;20538;-76
2021/12/04 08:01:43;;;;;;;0.90;0.80;;;6.70;97.20;;;;;;1711446;28;20217;-75
2021/12/04 08:02:34;;;;;;;0.80;0.68;;;6.60;97.20;;;;;;1713915;28;20197;-75
2021/12/04 08:03:26;;;;;;;0.80;0.70;;;6.60;97.20;;;;;;1713790;28;20202;-76
2021/12/04 08:04:19;;;;;;;0.90;0.60;;;6.60;97.20;;;;;;1714263;28;20940;-76
2021/12/04 08:05:11;;;;;;;1.25;0.80;;;6.60;97.20;;;;;;1714367;28;20214;-75
2021/12/04 08:06:02;;;;;;;2.67;0.70;;;6.60;97.20;;;;;;1714148;28;20236;-74
2021/12/04 08:06:54;;;;;;;1.73;0.88;;;6.60;97.20;;;;;;1714319;28;20209;-76
2021/12/04 08:07:45;;;;;;;0.90;0.80;;;6.60;97.20;;;;;;1714198;28;20233;-75
2021/12/04 08:08:37;;;;;;;1.70;0.80;;;6.70;97.20;;;;;;1714367;28;20209;-75
2021/12/04 08:09:28;;;;;;;1.00;0.90;;;6.70;97.20;;;;;;1713982;28;20701;-75
2021/12/04 08:10:20;;;;;;;0.77;0.70;;;6.70;97.20;;;;;;1714262;28;20583;-72
2021/12/04 08:11:11;;;;;;;0.90;0.80;;;6.70;97.20;;;;;;1719918;28;20208;-75
2021/12/04 08:12:03;;;;;;;1.87;1.10;;;6.70;97.20;;;;;;1720948;28;20236;-75
2021/12/04 08:12:54;;;;;;;2.05;1.23;;;6.70;97.20;;;;;;1720935;28;20459;-75
2021/12/04 08:13:47;;;;;;;2.63;1.30;;;6.70;97.20;;;;;;1720787;28;20223;-76
2021/12/04 08:14:38;;;;;;;2.25;1.38;;;6.70;97.20;;;;;;1720856;28;20201;-75
2021/12/04 08:15:30;;;;;;;3.50;1.13;;;6.70;97.20;;;;;;1720808;28;20213;-75
2021/12/04 08:16:24;;;;;;;1.42;1.13;;;6.70;97.20;;;;;;1720760;28;20221;-75
2021/12/04 08:17:16;;;;;;;0.82;0.82;;;6.70;97.20;;;;;;1720920;28;20212;-76
2021/12/04 08:18:08;;;;;;;0.90;0.80;;;6.70;97.20;;;;;;1720804;28;20205;-76
2021/12/04 08:19:00;;;;;;;1.88;0.90;;;6.70;97.20;;;;;;1720864;28;20245;-76
2021/12/04 08:19:52;;;;;;;3.60;1.85;;;6.70;97.20;;;;;;1720852;28;20197;-75
2021/12/04 08:20:45;;;;;;;3.60;2.30;;;6.70;97.20;;;;;;1719241;28;20221;-75
2021/12/04 08:21:35;;;;;;;2.47;1.15;;;6.70;97.20;;;;;;1720810;28;20205;-76
2021/12/04 08:22:27;;;;;;;5.30;1.43;;;6.70;97.20;;;;;;1720885;28;20201;-74
2021/12/04 08:23:18;;;;;;;0.90;0.80;;;6.70;97.20;;;;;;1720929;28;20247;-75
2021/12/04 08:24:10;;;;;;;0.90;0.70;;;6.70;97.20;;;;;;1720204;28;20204;-76
2021/12/04 08:25:00;;;;;;;1.00;0.90;;;6.70;97.20;;;;;;1720792;28;20444;-74
2021/12/04 08:25:52;;;;;;;0.80;0.80;;;6.80;97.20;;;;;;1720787;28;20260;-75
2021/12/04 08:26:44;;;;;;;1.20;1.10;;;6.80;97.20;;;;;;1720845;28;20928;-76
2021/12/04 08:27:36;;;;;;;1.00;0.75;;;6.80;97.20;;;;;;1720851;28;20201;-75
2021/12/04 08:28:27;;;;;;;1.20;1.10;;;6.80;97.20;;;;;;1720781;28;20201;-75
2021/12/04 08:29:19;;;;;;;0.80;0.80;;;6.80;97.20;;;;;;1720855;28;20291;-76
2021/12/04 08:30:13;;;;;;;0.98;0.88;;;6.80;97.20;;;;;;1720898;28;20238;-76
2021/12/04 08:31:04;;;;;;;0.90;0.80;;;6.80;97.20;;;;;;1716428;28;20213;-76
2021/12/04 08:31:55;;;;;;;0.90;0.80;;;6.90;97.20;;;;;;1714152;28;20298;-76
2021/12/04 08:32:49;;;;;;;1.63;1.00;;;6.90;97.20;;;;;;1713661;28;20214;-76
2021/12/04 08:33:40;;;;;;;1.20;1.08;;;6.90;97.20;;;;;;1713809;28;20445;-76
2021/12/04 08:34:32;;;;;;;1.48;1.17;;;6.90;97.20;;;;;;1714112;28;20197;-76
2021/12/04 08:35:26;;;;;;;1.10;1.00;;;6.90;97.20;;;;;;1714194;28;20258;-75
2021/12/04 08:36:18;;;;;;;0.93;0.85;;;6.90;97.20;;;;;;1714499;28;20557;-79
2021/12/04 08:37:09;;;;;;;1.20;1.10;;;6.90;97.20;;;;;;1714054;28;20214;-76
2021/12/04 08:38:00;;;;;;;1.10;1.00;;;6.90;97.20;;;;;;1714044;28;20212;-76
2021/12/04 08:38:51;;;;;;;0.80;0.80;;;7.00;97.20;;;;;;1714100;28;20230;-75
2021/12/04 08:39:43;;;;;;;0.98;0.80;;;7.00;97.20;;;;;;1714175;28;20197;-75
2021/12/04 08:40:35;;;;;;;1.23;1.05;;;7.00;97.20;;;;;;1714223;28;20221;-75
2021/12/04 08:41:27;;;;;;;0.90;0.80;;;7.00;97.20;;;;;;1720840;28;20569;-76
2021/12/04 08:42:19;;;;;;;0.80;0.68;;;7.00;97.20;;;;;;1720805;28;20205;-76
2021/12/04 08:43:11;;;;;;;0.80;0.75;;;7.00;97.20;;;;;;1719871;28;20235;-76
2021/12/04 08:44:03;;;;;;;0.90;0.70;;;7.00;97.20;;;;;;1713816;28;20205;-76
2021/12/04 08:44:54;;;;;;;1.13;0.98;;;7.00;97.20;;;;;;1714045;28;20210;-76
2021/12/04 08:45:47;;;;;;;1.30;0.70;;;7.00;97.20;;;;;;1714002;28;20225;-75
2021/12/04 08:46:38;;;;;;;0.82;0.70;;;7.00;97.20;;;;;;1714049;28;20198;-76
2021/12/04 08:47:30;;;;;;;1.33;0.70;;;7.00;97.20;;;;;;1714053;28;20206;-75
2021/12/04 08:48:21;;;;;;;1.30;0.60;;;7.00;97.20;;;;;;1714027;28;20507;-76
2021/12/04 08:49:13;;;;;;;0.97;0.87;;;7.00;97.20;;;;;;1713915;28;20255;-75
2021/12/04 08:50:05;;;;;;;0.75;0.60;;;7.00;97.20;;;;;;1714121;28;20448;-74
2021/12/04 08:50:59;;;;;;;0.70;0.60;;;7.00;97.20;;;;;;1714240;28;20225;-74
2021/12/04 08:51:50;;;;;;;4.40;0.75;;;7.10;97.20;;;;;;1714187;28;20201;-74
2021/12/04 08:52:43;;;;;;;0.70;0.60;;;7.10;97.20;;;;;;1714139;28;20732;-74
2021/12/04 08:53:34;;;;;;;1.58;0.95;;;7.10;97.20;;;;;;1713924;28;20240;-74
2021/12/04 08:54:25;;;;;;;1.10;0.70;;;7.10;97.20;;;;;;1714027;28;20723;-74
2021/12/04 08:55:18;;;;;;;1.20;0.70;;;7.10;97.20;;;;;;1714040;28;20688;-74
2021/12/04 08:56:09;;;;;;;1.55;0.70;;;7.10;97.20;;;;;;1714148;28;20213;-74
2021/12/04 08:57:01;;;;;;;1.63;0.90;;;7.10;97.20;;;;;;1714093;28;20208;-74
2021/12/04 08:57:52;;;;;;;4.10;0.80;;;7.10;97.20;;;;;;1714086;28;20201;-75
2021/12/04 08:58:45;;;;;;;0.90;0.90;;;7.10;97.20;;;;;;1714061;28;20257;-75
2021/12/04 08:59:36;;;;;;;1.17;0.90;;;7.10;97.20;;;;;;1714015;28;20202;-75
2021/12/04 09:00:33;;;;;;;0.80;0.70;;;7.10;97.20;;;;;;1713795;28;20198;-76
2021/12/04 09:01:30;;;;;;;1.10;0.90;;;7.10;97.20;;;;;;1715089;28;20971;-75
2021/12/04 09:02:21;;;;;;;1.33;1.10;;;7.10;97.20;;;;;;1714136;28;20197;-74
2021/12/04 09:03:12;;;;;;;0.90;0.80;;;7.10;97.20;;;;;;1713980;28;20217;-74
2021/12/04 09:04:07;;;;;;;1.73;1.10;;;7.10;97.20;;;;;;1713831;28;20198;-74
2021/12/04 09:04:58;;;;;;;1.50;0.93;;;7.10;97.20;;;;;;1714027;28;20241;-74
2021/12/04 09:05:50;;;;;;;0.80;0.70;;;7.10;97.20;;;;;;1714080;28;20213;-75
2021/12/04 09:06:42;;;;;;;1.73;0.80;;;7.10;97.20;;;;;;1713954;28;20482;-76
2021/12/04 09:07:34;;;;;;;1.80;0.77;;;7.10;97.20;;;;;;1714013;28;20289;-75
2021/12/04 09:08:27;;;;;;;1.50;1.00;;;7.10;97.20;;;;;;1714025;28;20205;-75
2021/12/04 09:09:20;;;;;;;1.17;0.90;;;7.10;97.20;;;;;;1714062;28;20205;-75
2021/12/04 09:10:12;;;;;;;1.50;0.88;;;7.20;97.20;;;;;;1713824;28;20225;-75
2021/12/04 09:11:06;;;;;;;1.67;0.88;;;7.20;97.20;;;;;;1716764;28;20197;-75
2021/12/04 09:12:00;;;;;;;1.00;0.90;;;7.20;97.20;;;;;;1720699;28;20664;-75
2021/12/04 09:12:54;;;;;;;0.80;0.70;;;7.20;97.20;;;;;;1720657;28;20201;-75
2021/12/04 09:13:47;;;;;;;1.45;0.70;;;7.20;97.20;;;;;;1720335;28;20716;-75
2021/12/04 09:14:41;;;;;;;1.42;0.98;;;7.20;97.20;;;;;;1720563;28;20255;-74
2021/12/04 09:15:32;;;;;;;1.77;0.95;;;7.20;97.20;;;;;;1720519;28;20201;-75
2021/12/04 09:16:25;;;;;;;2.20;1.60;;;7.20;97.20;;;;;;1720612;28;20207;-75
2021/12/04 09:17:18;;;;;;;1.90;1.70;;;7.30;97.20;;;;;;1720613;28;20849;-76
2021/12/04 09:18:10;;;;;;;1.95;1.55;;;7.30;97.20;;;;;;1720695;28;20201;-75
2021/12/04 09:19:01;;;;;;;5.22;1.35;;;7.30;97.20;;;;;;1720469;28;20205;-75
2021/12/04 09:19:53;;;;;;;2.63;0.90;;;7.30;97.20;;;;;;1720600;28;20199;-74
2021/12/04 09:20:45;;;;;;;5.25;1.83;;;7.40;97.20;;;;;;1719939;28;20648;-75
2021/12/04 09:21:39;;;;;;;4.90;1.30;;;7.40;97.20;;;;;;1713719;28;20201;-74
2021/12/04 09:22:34;;;;;;;5.22;1.70;;;7.40;97.20;;;;;;1713845;28;20244;-75
2021/12/04 09:23:31;;;;;;;2.35;1.15;;;7.40;97.20;;;;;;1713732;28;20210;-76
2021/12/04 09:24:25;;;;;;;3.40;1.55;;;7.40;97.20;;;;;;1713881;28;20202;-74
2021/12/04 09:25:23;;;;;;;4.53;2.00;;;7.40;97.20;;;;;;1713804;28;20244;-75
2021/12/04 09:26:28;;;;;;;5.88;1.95;;;7.40;97.20;;;;;;1713881;28;20352;-75
2021/12/04 09:27:22;;;;;;;6.45;2.00;;;7.40;97.20;;;;;;1713937;28;20586;-75
2021/12/04 09:28:21;;;;;;;2.10;1.42;;;7.40;97.20;;;;;;1714873;28;20194;-75
2021/12/04 09:29:27;;;;;;;1.88;1.20;;;7.40;97.20;;;;;;1713971;28;20210;-75
2021/12/04 09:30:48;;;;;;;1.70;1.30;;;7.40;97.20;;;;;;1714980;28;20198;-74
2021/12/04 09:34:20;;;;;;;0.90;0.80;;;7.50;97.20;;;;;;1704016;28;20206;-75
2021/12/04 09:36:58;;;;;;;1.00;0.90;;;7.40;97.20;;;;;;1701341;29;20573;-74
2021/12/04 10:00:14;;;;;;;1.55;0.90;;;7.70;97.20;;;;;;1708607;29;20238;-76
2021/12/04 10:01:17;;;;;;;0.80;0.73;;;7.70;97.20;;;;;;1708590;28;20207;-77
2021/12/04 10:02:25;;;;;;;1.45;0.60;;;7.80;97.20;;;;;;1708685;28;20214;-78
2021/12/04 10:03:36;;;;;;;0.80;0.70;;;7.80;97.20;;;;;;1708560;28;20670;-76
2021/12/04 10:04:55;;;;;;;1.92;0.80;;;7.80;97.20;;;;;;1708498;28;20233;-76
2021/12/04 10:13:43;;;;;;;4.07;1.38;;;8.00;97.20;;;;;;1700970;29;20246;-78
2021/12/04 10:14:58;;;;;;;2.10;1.50;;;8.00;97.20;;;;;;1700950;29;20199;-77
2021/12/04 10:17:20;;;;;;;2.30;2.10;;;8.10;97.20;;;;;;1701272;29;20262;-79
2021/12/04 10:18:33;;;;;;;1.40;1.30;;;8.10;97.20;;;;;;1711898;28;20194;-77
2021/12/04 10:19:34;;;;;;;1.92;0.82;;;8.20;97.20;;;;;;1715047;28;20230;-77
2021/12/04 10:20:36;;;;;;;1.15;0.90;;;8.20;97.20;;;;;;1715129;28;20676;-77
2021/12/04 10:21:36;;;;;;;1.00;0.80;;;8.20;97.20;;;;;;1715198;28;20243;-77
2021/12/04 10:22:35;;;;;;;1.05;0.95;;;8.30;97.20;;;;;;1714953;28;20201;-77
2021/12/04 10:32:28;;;;;;;1.23;1.10;;;8.40;97.20;;;;;;1708673;29;20205;-77
2021/12/04 10:33:20;;;;;;;1.92;1.10;;;8.40;97.20;;;;;;1713615;28;20224;-77
2021/12/04 10:34:11;;;;;;;1.15;0.90;;;8.40;97.20;;;;;;1714796;28;20209;-76
2021/12/04 10:35:14;;;;;;;1.58;0.93;;;8.50;97.20;;;;;;1715200;28;20209;-76
2021/12/04 10:36:05;;;;;;;1.10;0.90;;;8.50;97.20;;;;;;1715192;28;20569;-76
2021/12/04 10:37:05;;;;;;;1.00;0.70;;;8.50;97.20;;;;;;1715408;28;20202;-77
2021/12/04 10:38:02;;;;;;;2.35;0.80;;;8.50;97.20;;;;;;1714484;28;20260;-76
2021/12/04 10:38:56;;;;;;;1.38;0.90;;;8.50;97.20;;;;;;1715006;28;20198;-76
2021/12/04 10:39:47;;;;;;;2.42;0.90;;;8.50;97.20;;;;;;1714929;28;20275;-76
2021/12/04 10:40:41;;;;;;;1.03;0.93;;;8.50;97.20;;;;;;1714994;28;20214;-77
2021/12/04 10:41:37;;;;;;;1.00;0.80;;;8.50;97.20;;;;;;1714806;28;20198;-77
2021/12/04 10:42:40;;;;;;;1.05;0.95;;;8.50;97.20;;;;;;1714384;28;20198;-75
2021/12/04 10:43:32;;;;;;;2.15;1.42;;;8.50;97.20;;;;;;1714484;28;20206;-76
2021/12/04 10:44:25;;;;;;;1.40;1.00;;;8.50;97.20;;;;;;1714892;28;20213;-75
2021/12/04 10:45:17;;;;;;;0.95;0.63;;;8.60;97.20;;;;;;1714358;28;20208;-77
2021/12/04 10:46:13;;;;;;;1.20;0.95;;;8.60;97.20;;;;;;1714940;28;20558;-75
2021/12/04 10:47:11;;;;;;;1.88;0.82;;;8.60;97.20;;;;;;1715020;28;20225;-77
2021/12/04 10:48:08;;;;;;;1.80;0.90;;;8.60;97.20;;;;;;1714860;28;20600;-76
2021/12/04 10:49:04;;;;;;;0.80;0.70;;;8.60;97.20;;;;;;1714853;28;20222;-75
2021/12/04 10:50:09;;;;;;;0.80;0.77;;;8.60;97.20;;;;;;1714825;28;20202;-75
2021/12/04 10:51:08;;;;;;;0.80;0.70;;;8.60;97.20;;;;;;1714659;28;20233;-76
2021/12/04 10:52:03;;;;;;;1.20;0.70;;;8.70;97.20;;;;;;1714783;28;20501;-76
2021/12/04 10:52:57;;;;;;;0.80;0.70;;;8.70;97.20;;;;;;1714246;28;20194;-76
2021/12/04 10:53:53;;;;;;;0.82;0.70;;;8.70;97.20;;;;;;1714344;28;20208;-77
2021/12/04 10:54:50;;;;;;;0.98;0.88;;;8.80;97.20;;;;;;1714478;28;20202;-76
2021/12/04 10:55:48;;;;;;;0.80;0.80;;;8.80;97.20;;;;;;1714124;28;20214;-76
2021/12/04 10:56:59;;;;;;;2.08;1.30;;;8.80;97.20;;;;;;1714791;28;20209;-76
2021/12/04 10:58:20;;;;;;;1.10;0.98;;;8.80;97.20;;;;;;1714622;28;20622;-76
2021/12/04 11:00:37;;;;;;;1.35;0.80;;;8.90;97.20;;;;;;1708617;28;20254;-75
2021/12/04 11:01:42;;;;;;;1.13;0.80;;;8.90;97.20;;;;;;1714650;28;20206;-75
2021/12/04 11:02:42;;;;;;;3.60;1.10;;;8.90;97.20;;;;;;1714424;28;20215;-75
2021/12/04 11:03:48;;;;;;;1.13;1.00;;;9.00;97.20;;;;;;1707630;28;20213;-76
2021/12/04 11:04:43;;;;;;;1.10;1.00;;;9.00;97.20;;;;;;1708029;28;20302;-76
2021/12/04 11:06:18;;;;;;;1.02;0.93;;;9.00;97.20;;;;;;1707522;28;20266;-76
2021/12/04 11:07:33;;;;;;;1.33;1.23;;;9.00;97.20;;;;;;1707895;29;20682;-76
2021/12/04 11:19:10;;;;;;;0.90;0.80;;;9.10;97.20;;;;;;1714772;28;20225;-77
2021/12/04 11:22:24;;;;;;;1.63;1.25;;;9.10;97.20;;;;;;1714909;28;20693;-76
2021/12/04 11:23:39;;;;;;;1.20;1.00;;;9.20;97.20;;;;;;1714230;28;20202;-76
2021/12/04 11:26:11;;;;;;;1.05;0.95;;;9.20;97.20;;;;;;1706971;29;20243;-76
2021/12/04 11:27:22;;;;;;;1.90;0.90;;;9.20;97.20;;;;;;1714573;28;20210;-77
2021/12/04 11:28:28;;;;;;;0.98;0.80;;;9.20;97.20;;;;;;1714627;28;20254;-76
2021/12/04 11:36:53;;;;;;;3.25;1.80;;;9.30;97.20;;;;;;1707137;29;20206;-76
2021/12/04 11:38:57;;;;;;;1.00;0.90;;;9.30;97.20;;;;;;1714334;28;20204;-76
2021/12/04 11:40:04;;;;;;;0.90;0.75;;;9.30;97.20;;;;;;1714464;28;20337;-77
2021/12/04 11:41:19;;;;;;;0.80;0.63;;;9.30;97.20;;;;;;1714513;28;20598;-76
2021/12/04 11:42:20;;;;;;;1.20;1.10;;;9.30;97.20;;;;;;1714527;28;20263;-75
2021/12/04 11:43:16;;;;;;;0.90;0.70;;;9.30;97.20;;;;;;1714244;28;20666;-76
2021/12/04 11:44:10;;;;;;;0.80;0.70;;;9.40;97.20;;;;;;1714469;28;20206;-75
2021/12/04 11:45:12;;;;;;;1.30;0.90;;;9.30;97.20;;;;;;1714527;28;20201;-77
2021/12/04 11:46:17;;;;;;;0.90;0.60;;;9.40;97.20;;;;;;1714569;28;20245;-76
2021/12/04 11:47:09;;;;;;;0.75;0.70;;;9.40;97.20;;;;;;1714573;28;20253;-77
2021/12/04 11:48:02;;;;;;;2.88;2.08;;;9.40;97.20;;;;;;1714549;28;20470;-77
2021/12/04 11:48:59;;;;;;;1.48;1.33;;;9.40;97.20;;;;;;1714451;28;20257;-77
2021/12/04 11:49:50;;;;;;;1.23;0.90;;;9.40;97.20;;;;;;1714480;28;20739;-77
2021/12/04 11:50:51;;;;;;;0.90;0.75;;;9.40;97.20;;;;;;1714284;28;20230;-75
2021/12/04 11:51:56;;;;;;;1.27;1.08;;;9.40;97.20;;;;;;1714542;28;20198;-76
2021/12/04 11:52:50;;;;;;;1.52;0.60;;;9.40;97.20;;;;;;1714512;28;20199;-77
2021/12/04 11:53:42;;;;;;;0.80;0.70;;;9.40;97.20;;;;;;1713917;28;20205;-77
2021/12/04 11:54:45;;;;;;;1.50;0.93;;;9.40;97.20;;;;;;1714494;28;20194;-78
2021/12/04 11:55:39;;;;;;;1.00;0.88;;;9.50;97.20;;;;;;1714360;28;20202;-76
2021/12/04 11:56:32;;;;;;;1.17;0.80;;;9.50;97.20;;;;;;1714559;28;20201;-76
2021/12/04 11:57:28;;;;;;;1.23;0.80;;;9.50;97.20;;;;;;1714430;28;20202;-75
2021/12/04 11:58:22;;;;;;;1.00;0.90;;;9.50;97.20;;;;;;1714388;28;20205;-75
2021/12/04 11:59:13;;;;;;;1.02;0.90;;;9.50;97.20;;;;;;1714689;28;20237;-76